Time;durP1;ratioP1;P1;durP2;ratioP2;P2;SDS_P1;SDS_P2;PMS_P1;PMS_P2;Temp;Humidity;BMP_temperature;BMP_pressure;BME280_temperature;BME280_humidity;BME280_pressure;Samples;Min_cycle;Max_cycle;Signal;HPM_P1;HPM_P2
2022/07/29 06:09:20;;;;;;;12.85;1.77;;;19.30;67.10;;;;;;5341828;24;20682;-73
2022/07/29 06:11:45;;;;;;;13.02;1.30;;;19.40;66.80;;;;;;4863204;29;20061;-72
2022/07/29 06:14:11;;;;;;;18.42;1.77;;;19.40;66.80;;;;;;4866103;29;20373;-72
2022/07/29 06:16:37;;;;;;;11.82;2.60;;;19.40;66.10;;;;;;4865938;29;20104;-74
2022/07/29 06:19:03;;;;;;;15.02;1.85;;;19.40;66.40;;;;;;4850149;29;20053;-74
2022/07/29 06:21:29;;;;;;;8.07;1.25;;;19.40;67.00;;;;;;4865274;29;20049;-74
2022/07/29 06:23:55;;;;;;;10.35;2.17;;;19.50;67.10;;;;;;4865876;29;20461;-76
2022/07/29 06:26:20;;;;;;;16.33;2.05;;;19.50;67.70;;;;;;4849657;29;20053;-75
2022/07/29 06:28:46;;;;;;;12.88;1.92;;;19.50;67.60;;;;;;4865806;29;20120;-77
2022/07/29 06:31:12;;;;;;;15.77;2.80;;;19.60;67.30;;;;;;4865230;29;20119;-76
2022/07/29 06:33:38;;;;;;;10.32;1.67;;;19.70;67.40;;;;;;4865931;29;20077;-75
2022/07/29 06:36:05;;;;;;;9.57;2.13;;;19.70;67.10;;;;;;4865676;29;20453;-78
2022/07/29 06:38:32;;;;;;;6.20;1.30;;;19.70;66.90;;;;;;4849067;29;20056;-74
2022/07/29 06:41:02;;;;;;;12.27;1.52;;;19.70;66.30;;;;;;4865683;29;20495;-75
2022/07/29 06:43:33;;;;;;;4.05;1.08;;;19.60;65.60;;;;;;4864931;29;20169;-75
2022/07/29 06:46:17;;;;;;;11.63;1.83;;;19.50;65.80;;;;;;4865501;29;20140;-74
2022/07/29 06:48:43;;;;;;;13.75;1.35;;;19.50;66.20;;;;;;4865848;29;20053;-79
2022/07/29 06:51:10;;;;;;;7.25;1.40;;;19.60;66.60;;;;;;4865428;29;20341;-74
2022/07/29 06:53:36;;;;;;;4.85;0.82;;;19.60;66.30;;;;;;4849103;29;20049;-74
2022/07/29 06:56:03;;;;;;;9.45;1.58;;;19.60;65.90;;;;;;4864996;29;20093;-75
2022/07/29 06:58:30;;;;;;;5.47;1.70;;;19.60;65.90;;;;;;4848901;29;20390;-74
2022/07/29 07:01:01;;;;;;;5.32;0.95;;;19.70;66.20;;;;;;4864944;29;20049;-76
2022/07/29 07:03:26;;;;;;;5.63;0.98;;;19.70;66.00;;;;;;4864945;29;20076;-75
2022/07/29 07:05:54;;;;;;;4.40;0.90;;;19.70;66.00;;;;;;4865740;29;20449;-74
2022/07/29 07:08:21;;;;;;;9.10;1.50;;;19.60;65.70;;;;;;4865786;29;20077;-75
2022/07/29 07:10:47;;;;;;;7.05;1.20;;;19.60;65.90;;;;;;4864501;29;20061;-73
2022/07/29 07:13:14;;;;;;;8.98;1.70;;;19.70;65.80;;;;;;4864467;29;20057;-74
2022/07/29 07:15:40;;;;;;;6.03;1.02;;;19.70;65.90;;;;;;4864640;29;20045;-74
2022/07/29 07:18:06;;;;;;;6.55;1.20;;;19.70;65.70;;;;;;4864813;29;20140;-74
2022/07/29 07:20:33;;;;;;;10.70;1.65;;;19.70;65.80;;;;;;4864708;29;20057;-75
2022/07/29 07:22:59;;;;;;;6.97;1.25;;;19.70;65.90;;;;;;4864313;29;20055;-75
2022/07/29 07:25:25;;;;;;;8.85;1.42;;;19.70;65.70;;;;;;4865005;29;20128;-73
2022/07/29 07:27:51;;;;;;;7.40;2.00;;;19.70;65.40;;;;;;4863849;29;20113;-71
2022/07/29 07:30:17;;;;;;;14.50;1.75;;;19.70;65.80;;;;;;4864636;29;20244;-72
2022/07/29 07:32:43;;;;;;;8.80;1.10;;;19.70;65.90;;;;;;4863979;29;20122;-71
2022/07/29 07:35:09;;;;;;;14.88;1.77;;;19.80;66.10;;;;;;4864432;29;20136;-71
2022/07/29 07:37:36;;;;;;;8.38;1.65;;;19.80;66.20;;;;;;4863439;29;20050;-71
2022/07/29 07:40:03;;;;;;;12.93;1.45;;;19.80;66.20;;;;;;4862932;29;20049;-71
2022/07/29 07:42:29;;;;;;;11.82;1.50;;;19.80;66.30;;;;;;4862135;29;20049;-71
2022/07/29 07:44:54;;;;;;;13.07;2.20;;;19.90;66.40;;;;;;4864147;29;20050;-71
2022/07/29 07:47:20;;;;;;;11.15;1.30;;;19.90;66.80;;;;;;4873993;29;20116;-71
2022/07/29 07:49:47;;;;;;;9.93;1.35;;;19.90;67.10;;;;;;4882949;29;20049;-72
2022/07/29 07:52:13;;;;;;;13.30;2.00;;;20.00;66.90;;;;;;4875672;29;20045;-73
2022/07/29 07:54:39;;;;;;;13.40;1.52;;;20.00;67.10;;;;;;4864250;29;20496;-73
2022/07/29 07:57:05;;;;;;;10.98;1.88;;;20.00;66.90;;;;;;4864006;29;20058;-74
2022/07/29 07:59:30;;;;;;;10.60;1.80;;;20.00;66.90;;;;;;4863851;29;20491;-71
2022/07/29 08:01:56;;;;;;;9.27;1.50;;;20.00;66.80;;;;;;4863665;29;20191;-74
2022/07/29 08:04:23;;;;;;;12.65;1.63;;;20.00;66.60;;;;;;4864081;29;20049;-74
2022/07/29 08:06:50;;;;;;;14.45;1.50;;;20.00;66.60;;;;;;4864122;29;20053;-73
2022/07/29 08:09:16;;;;;;;17.70;2.00;;;20.10;66.60;;;;;;4864232;29;20461;-71
2022/07/29 08:11:42;;;;;;;18.70;2.05;;;20.00;66.60;;;;;;4863138;29;20053;-75
2022/07/29 08:14:07;;;;;;;17.80;2.67;;;20.10;66.80;;;;;;4863390;29;20053;-74
2022/07/29 08:16:33;;;;;;;15.90;2.40;;;20.10;66.90;;;;;;4863669;29;20060;-75
